sensor_id;sensor_type;location;lat;lon;timestamp;temperature;humidity
23329;DHT22;11836;51.050;3.716;2023-04-15T00:00:15;17.30;98.90
23329;DHT22;11836;51.050;3.716;2023-04-15T00:02:42;17.30;98.90
23329;DHT22;11836;51.050;3.716;2023-04-15T00:05:08;17.30;98.90
23329;DHT22;11836;51.050;3.716;2023-04-15T00:07:37;17.30;98.90
23329;DHT22;11836;51.050;3.716;2023-04-15T00:10:03;17.30;99.20
23329;DHT22;11836;51.050;3.716;2023-04-15T00:12:29;17.30;98.80
23329;DHT22;11836;51.050;3.716;2023-04-15T00:14:55;17.30;98.80
23329;DHT22;11836;51.050;3.716;2023-04-15T00:17:22;17.30;98.80
23329;DHT22;11836;51.050;3.716;2023-04-15T00:19:48;17.30;98.80
23329;DHT22;11836;51.050;3.716;2023-04-15T00:22:14;17.30;98.70
23329;DHT22;11836;51.050;3.716;2023-04-15T00:24:39;17.30;98.70
23329;DHT22;11836;51.050;3.716;2023-04-15T00:27:05;17.20;98.70
23329;DHT22;11836;51.050;3.716;2023-04-15T00:29:33;17.20;98.70
23329;DHT22;11836;51.050;3.716;2023-04-15T00:32:00;17.30;98.80
23329;DHT22;11836;51.050;3.716;2023-04-15T00:34:26;17.20;98.80
23329;DHT22;11836;51.050;3.716;2023-04-15T00:36:55;17.20;98.80
23329;DHT22;11836;51.050;3.716;2023-04-15T00:39:21;17.20;98.80
23329;DHT22;11836;51.050;3.716;2023-04-15T00:41:47;17.20;99.20
23329;DHT22;11836;51.050;3.716;2023-04-15T00:44:13;17.20;98.90
23329;DHT22;11836;51.050;3.716;2023-04-15T00:46:40;17.20;98.90
23329;DHT22;11836;51.050;3.716;2023-04-15T00:49:07;17.20;98.90
23329;DHT22;11836;51.050;3.716;2023-04-15T00:51:33;17.20;99.00
23329;DHT22;11836;51.050;3.716;2023-04-15T00:54:05;17.20;99.00
23329;DHT22;11836;51.050;3.716;2023-04-15T00:56:34;17.10;99.00
23329;DHT22;11836;51.050;3.716;2023-04-15T00:59:00;17.10;99.30
23329;DHT22;11836;51.050;3.716;2023-04-15T01:01:27;17.10;99.00
23329;DHT22;11836;51.050;3.716;2023-04-15T01:03:55;17.10;99.00
23329;DHT22;11836;51.050;3.716;2023-04-15T01:06:22;17.10;99.00
23329;DHT22;11836;51.050;3.716;2023-04-15T01:08:48;17.10;99.00
23329;DHT22;11836;51.050;3.716;2023-04-15T01:11:14;17.10;99.00
23329;DHT22;11836;51.050;3.716;2023-04-15T01:13:40;17.10;99.00
23329;DHT22;11836;51.050;3.716;2023-04-15T01:16:07;17.10;99.00
23329;DHT22;11836;51.050;3.716;2023-04-15T01:18:36;17.10;98.90
23329;DHT22;11836;51.050;3.716;2023-04-15T01:21:04;17.00;98.80
23329;DHT22;11836;51.050;3.716;2023-04-15T01:23:30;17.00;98.80
23329;DHT22;11836;51.050;3.716;2023-04-15T01:25:58;17.00;98.90
23329;DHT22;11836;51.050;3.716;2023-04-15T01:28:24;17.00;99.00
23329;DHT22;11836;51.050;3.716;2023-04-15T01:30:50;17.00;98.90
23329;DHT22;11836;51.050;3.716;2023-04-15T01:33:15;17.00;98.90
23329;DHT22;11836;51.050;3.716;2023-04-15T01:35:41;17.00;98.90
23329;DHT22;11836;51.050;3.716;2023-04-15T01:38:10;16.90;99.30
23329;DHT22;11836;51.050;3.716;2023-04-15T01:40:36;16.90;99.10
23329;DHT22;11836;51.050;3.716;2023-04-15T01:43:02;16.90;99.20
23329;DHT22;11836;51.050;3.716;2023-04-15T01:45:28;16.90;99.30
23329;DHT22;11836;51.050;3.716;2023-04-15T01:47:54;16.90;99.30
23329;DHT22;11836;51.050;3.716;2023-04-15T01:50:21;16.90;99.70
23329;DHT22;11836;51.050;3.716;2023-04-15T01:52:46;16.90;99.40
23329;DHT22;11836;51.050;3.716;2023-04-15T01:55:13;16.80;99.40
23329;DHT22;11836;51.050;3.716;2023-04-15T01:57:39;16.90;99.40
23329;DHT22;11836;51.050;3.716;2023-04-15T02:00:06;16.90;99.30
23329;DHT22;11836;51.050;3.716;2023-04-15T02:02:34;16.90;99.40
23329;DHT22;11836;51.050;3.716;2023-04-15T02:05:00;16.80;99.30
23329;DHT22;11836;51.050;3.716;2023-04-15T02:07:26;16.80;99.30
23329;DHT22;11836;51.050;3.716;2023-04-15T02:09:53;16.80;99.40
23329;DHT22;11836;51.050;3.716;2023-04-15T02:12:23;16.80;99.30
23329;DHT22;11836;51.050;3.716;2023-04-15T02:14:48;16.80;99.60
23329;DHT22;11836;51.050;3.716;2023-04-15T02:17:14;16.80;99.30
23329;DHT22;11836;51.050;3.716;2023-04-15T02:19:39;16.50;99.30
23329;DHT22;11836;51.050;3.716;2023-04-15T02:22:05;16.70;99.40
23329;DHT22;11836;51.050;3.716;2023-04-15T02:24:33;16.70;99.80
23329;DHT22;11836;51.050;3.716;2023-04-15T02:26:59;16.70;99.50
23329;DHT22;11836;51.050;3.716;2023-04-15T02:29:25;16.70;99.60
23329;DHT22;11836;51.050;3.716;2023-04-15T02:31:51;16.70;99.60
23329;DHT22;11836;51.050;3.716;2023-04-15T02:34:16;16.70;99.60
23329;DHT22;11836;51.050;3.716;2023-04-15T02:36:42;16.70;99.60
23329;DHT22;11836;51.050;3.716;2023-04-15T02:39:07;16.70;99.60
23329;DHT22;11836;51.050;3.716;2023-04-15T02:41:33;16.70;99.60
23329;DHT22;11836;51.050;3.716;2023-04-15T02:43:59;16.70;99.60
23329;DHT22;11836;51.050;3.716;2023-04-15T02:46:25;16.70;99.60
23329;DHT22;11836;51.050;3.716;2023-04-15T02:48:51;16.70;99.60
23329;DHT22;11836;51.050;3.716;2023-04-15T02:51:20;16.70;99.60
23329;DHT22;11836;51.050;3.716;2023-04-15T02:53:46;16.70;99.60
23329;DHT22;11836;51.050;3.716;2023-04-15T02:56:13;16.70;99.60
23329;DHT22;11836;51.050;3.716;2023-04-15T02:58:42;16.70;99.60
23329;DHT22;11836;51.050;3.716;2023-04-15T03:01:07;16.70;99.60
23329;DHT22;11836;51.050;3.716;2023-04-15T03:03:33;16.60;99.60
23329;DHT22;11836;51.050;3.716;2023-04-15T03:05:59;16.60;99.60
23329;DHT22;11836;51.050;3.716;2023-04-15T03:08:25;16.60;99.90
23329;DHT22;11836;51.050;3.716;2023-04-15T03:10:51;16.60;99.60
23329;DHT22;11836;51.050;3.716;2023-04-15T03:13:18;16.60;99.50
23329;DHT22;11836;51.050;3.716;2023-04-15T03:15:46;16.60;99.50
23329;DHT22;11836;51.050;3.716;2023-04-15T03:18:18;16.60;99.50
23329;DHT22;11836;51.050;3.716;2023-04-15T03:20:44;16.60;99.50
23329;DHT22;11836;51.050;3.716;2023-04-15T03:23:11;16.60;99.60
23329;DHT22;11836;51.050;3.716;2023-04-15T03:25:37;16.60;99.60
23329;DHT22;11836;51.050;3.716;2023-04-15T03:28:02;16.60;99.60
23329;DHT22;11836;51.050;3.716;2023-04-15T03:30:28;16.60;99.60
23329;DHT22;11836;51.050;3.716;2023-04-15T03:32:54;16.60;99.60
23329;DHT22;11836;51.050;3.716;2023-04-15T03:35:23;16.60;99.70
23329;DHT22;11836;51.050;3.716;2023-04-15T03:37:48;16.60;99.60
23329;DHT22;11836;51.050;3.716;2023-04-15T03:40:17;16.50;99.50
23329;DHT22;11836;51.050;3.716;2023-04-15T03:42:43;16.50;99.50
23329;DHT22;11836;51.050;3.716;2023-04-15T03:45:09;16.50;99.60
23329;DHT22;11836;51.050;3.716;2023-04-15T03:47:35;16.50;99.60
23329;DHT22;11836;51.050;3.716;2023-04-15T03:50:01;16.50;99.80
23329;DHT22;11836;51.050;3.716;2023-04-15T03:52:27;16.50;99.60
23329;DHT22;11836;51.050;3.716;2023-04-15T03:54:53;16.50;99.60
23329;DHT22;11836;51.050;3.716;2023-04-15T03:57:21;16.50;99.60
23329;DHT22;11836;51.050;3.716;2023-04-15T03:59:46;16.50;99.70
23329;DHT22;11836;51.050;3.716;2023-04-15T04:02:16;16.50;99.70
23329;DHT22;11836;51.050;3.716;2023-04-15T04:04:43;16.40;99.70
23329;DHT22;11836;51.050;3.716;2023-04-15T04:07:15;16.40;99.70
23329;DHT22;11836;51.050;3.716;2023-04-15T04:09:41;16.40;99.80
23329;DHT22;11836;51.050;3.716;2023-04-15T04:12:07;16.40;99.80
23329;DHT22;11836;51.050;3.716;2023-04-15T04:14:33;16.40;99.80
23329;DHT22;11836;51.050;3.716;2023-04-15T04:16:58;16.40;99.80
23329;DHT22;11836;51.050;3.716;2023-04-15T04:19:26;16.40;99.80
23329;DHT22;11836;51.050;3.716;2023-04-15T04:21:52;16.40;99.80
23329;DHT22;11836;51.050;3.716;2023-04-15T04:24:18;16.40;99.80
23329;DHT22;11836;51.050;3.716;2023-04-15T04:26:43;16.40;99.70
23329;DHT22;11836;51.050;3.716;2023-04-15T04:29:09;16.40;99.70
23329;DHT22;11836;51.050;3.716;2023-04-15T04:31:34;16.30;99.60
23329;DHT22;11836;51.050;3.716;2023-04-15T04:34:00;16.40;99.80
23329;DHT22;11836;51.050;3.716;2023-04-15T04:36:27;16.30;99.70
23329;DHT22;11836;51.050;3.716;2023-04-15T04:38:53;16.30;99.70
23329;DHT22;11836;51.050;3.716;2023-04-15T04:41:19;16.30;99.80
23329;DHT22;11836;51.050;3.716;2023-04-15T04:43:46;16.30;99.90
23329;DHT22;11836;51.050;3.716;2023-04-15T04:46:11;16.30;99.90
23329;DHT22;11836;51.050;3.716;2023-04-15T04:48:37;16.30;99.90
23329;DHT22;11836;51.050;3.716;2023-04-15T04:51:03;16.30;99.90
23329;DHT22;11836;51.050;3.716;2023-04-15T04:53:29;16.30;99.90
23329;DHT22;11836;51.050;3.716;2023-04-15T04:55:55;16.30;99.90
23329;DHT22;11836;51.050;3.716;2023-04-15T04:58:21;16.20;99.90
23329;DHT22;11836;51.050;3.716;2023-04-15T05:00:47;16.30;99.90
23329;DHT22;11836;51.050;3.716;2023-04-15T05:03:13;16.20;99.90
23329;DHT22;11836;51.050;3.716;2023-04-15T05:05:39;16.20;99.90
23329;DHT22;11836;51.050;3.716;2023-04-15T05:08:06;16.20;99.90
23329;DHT22;11836;51.050;3.716;2023-04-15T05:10:32;16.20;99.90
23329;DHT22;11836;51.050;3.716;2023-04-15T05:12:57;16.20;99.90
23329;DHT22;11836;51.050;3.716;2023-04-15T05:15:23;16.20;99.90
23329;DHT22;11836;51.050;3.716;2023-04-15T05:17:49;16.20;99.90
23329;DHT22;11836;51.050;3.716;2023-04-15T05:20:16;16.20;99.90
23329;DHT22;11836;51.050;3.716;2023-04-15T05:22:42;16.20;99.90
23329;DHT22;11836;51.050;3.716;2023-04-15T05:25:09;16.20;99.90
23329;DHT22;11836;51.050;3.716;2023-04-15T05:27:34;16.20;99.90
23329;DHT22;11836;51.050;3.716;2023-04-15T05:30:01;16.10;99.90
23329;DHT22;11836;51.050;3.716;2023-04-15T05:32:26;16.20;99.90
23329;DHT22;11836;51.050;3.716;2023-04-15T05:34:52;16.20;99.90
23329;DHT22;11836;51.050;3.716;2023-04-15T05:37:17;16.20;99.90
23329;DHT22;11836;51.050;3.716;2023-04-15T05:39:45;16.20;99.90
23329;DHT22;11836;51.050;3.716;2023-04-15T05:42:11;16.20;99.90
23329;DHT22;11836;51.050;3.716;2023-04-15T05:44:37;16.20;99.90
23329;DHT22;11836;51.050;3.716;2023-04-15T05:47:03;16.20;99.90
23329;DHT22;11836;51.050;3.716;2023-04-15T05:49:30;16.20;99.90
23329;DHT22;11836;51.050;3.716;2023-04-15T05:51:56;16.20;99.90
23329;DHT22;11836;51.050;3.716;2023-04-15T05:54:21;16.20;99.90
23329;DHT22;11836;51.050;3.716;2023-04-15T05:56:48;16.20;99.90
23329;DHT22;11836;51.050;3.716;2023-04-15T05:59:14;16.20;99.90
23329;DHT22;11836;51.050;3.716;2023-04-15T06:01:40;16.20;99.90
23329;DHT22;11836;51.050;3.716;2023-04-15T06:04:05;16.20;99.90
23329;DHT22;11836;51.050;3.716;2023-04-15T06:06:31;16.20;99.90
23329;DHT22;11836;51.050;3.716;2023-04-15T06:08:58;16.20;99.90
23329;DHT22;11836;51.050;3.716;2023-04-15T06:11:24;16.20;99.90
23329;DHT22;11836;51.050;3.716;2023-04-15T06:13:51;16.20;99.90
23329;DHT22;11836;51.050;3.716;2023-04-15T06:16:16;16.20;99.90
23329;DHT22;11836;51.050;3.716;2023-04-15T06:18:42;16.20;99.90
23329;DHT22;11836;51.050;3.716;2023-04-15T06:21:08;16.20;99.90
23329;DHT22;11836;51.050;3.716;2023-04-15T06:23:35;16.20;99.90
23329;DHT22;11836;51.050;3.716;2023-04-15T06:26:01;16.20;99.90
23329;DHT22;11836;51.050;3.716;2023-04-15T06:28:26;16.30;99.90
23329;DHT22;11836;51.050;3.716;2023-04-15T06:30:53;16.30;99.90
23329;DHT22;11836;51.050;3.716;2023-04-15T06:33:19;16.30;99.90
23329;DHT22;11836;51.050;3.716;2023-04-15T06:35:44;16.30;99.90
23329;DHT22;11836;51.050;3.716;2023-04-15T06:38:10;16.30;99.90
23329;DHT22;11836;51.050;3.716;2023-04-15T06:40:36;16.40;99.90
23329;DHT22;11836;51.050;3.716;2023-04-15T06:43:01;16.40;99.90
23329;DHT22;11836;51.050;3.716;2023-04-15T06:45:29;16.40;99.90
23329;DHT22;11836;51.050;3.716;2023-04-15T06:47:55;16.40;99.90
23329;DHT22;11836;51.050;3.716;2023-04-15T06:50:21;16.40;99.90
23329;DHT22;11836;51.050;3.716;2023-04-15T06:52:47;16.50;99.90
23329;DHT22;11836;51.050;3.716;2023-04-15T06:55:12;16.50;99.90
23329;DHT22;11836;51.050;3.716;2023-04-15T06:57:39;16.50;99.90
23329;DHT22;11836;51.050;3.716;2023-04-15T07:00:05;16.50;99.90
23329;DHT22;11836;51.050;3.716;2023-04-15T07:02:33;16.50;99.90
23329;DHT22;11836;51.050;3.716;2023-04-15T07:04:59;16.60;99.90
23329;DHT22;11836;51.050;3.716;2023-04-15T07:07:25;16.70;99.90
23329;DHT22;11836;51.050;3.716;2023-04-15T07:09:52;16.80;99.90
23329;DHT22;11836;51.050;3.716;2023-04-15T07:12:21;16.80;99.90
23329;DHT22;11836;51.050;3.716;2023-04-15T07:14:46;16.90;99.90
23329;DHT22;11836;51.050;3.716;2023-04-15T07:17:12;16.90;99.90
23329;DHT22;11836;51.050;3.716;2023-04-15T07:19:38;17.00;99.90
23329;DHT22;11836;51.050;3.716;2023-04-15T07:22:03;17.10;99.90
23329;DHT22;11836;51.050;3.716;2023-04-15T07:24:29;17.20;99.90
23329;DHT22;11836;51.050;3.716;2023-04-15T07:26:55;17.20;99.90
23329;DHT22;11836;51.050;3.716;2023-04-15T07:29:25;17.20;99.90
23329;DHT22;11836;51.050;3.716;2023-04-15T07:31:51;17.20;99.90
23329;DHT22;11836;51.050;3.716;2023-04-15T07:34:18;17.30;99.90
23329;DHT22;11836;51.050;3.716;2023-04-15T07:36:45;17.40;99.90
23329;DHT22;11836;51.050;3.716;2023-04-15T07:39:10;17.40;99.90
23329;DHT22;11836;51.050;3.716;2023-04-15T07:41:36;17.40;99.90
23329;DHT22;11836;51.050;3.716;2023-04-15T07:44:02;17.50;99.90
23329;DHT22;11836;51.050;3.716;2023-04-15T07:46:28;17.60;99.50
23329;DHT22;11836;51.050;3.716;2023-04-15T07:48:54;17.60;99.00
23329;DHT22;11836;51.050;3.716;2023-04-15T07:51:20;17.60;99.00
23329;DHT22;11836;51.050;3.716;2023-04-15T07:53:46;17.70;98.90
23329;DHT22;11836;51.050;3.716;2023-04-15T07:56:13;17.70;99.00
23329;DHT22;11836;51.050;3.716;2023-04-15T07:58:39;17.80;98.90
23329;DHT22;11836;51.050;3.716;2023-04-15T08:01:05;17.80;98.70
23329;DHT22;11836;51.050;3.716;2023-04-15T08:03:33;17.90;98.50
23329;DHT22;11836;51.050;3.716;2023-04-15T08:05:59;17.90;98.30
23329;DHT22;11836;51.050;3.716;2023-04-15T08:08:24;18.00;98.20
23329;DHT22;11836;51.050;3.716;2023-04-15T08:10:51;18.10;98.10
23329;DHT22;11836;51.050;3.716;2023-04-15T08:13:17;18.10;98.10
23329;DHT22;11836;51.050;3.716;2023-04-15T08:16:12;18.20;98.10
23329;DHT22;11836;51.050;3.716;2023-04-15T08:18:38;18.30;98.10
23329;DHT22;11836;51.050;3.716;2023-04-15T08:21:04;18.40;98.20
23329;DHT22;11836;51.050;3.716;2023-04-15T08:23:31;18.40;98.30
23329;DHT22;11836;51.050;3.716;2023-04-15T08:25:59;18.50;98.70
23329;DHT22;11836;51.050;3.716;2023-04-15T08:28:26;18.60;98.50
23329;DHT22;11836;51.050;3.716;2023-04-15T08:30:52;18.70;98.60
23329;DHT22;11836;51.050;3.716;2023-04-15T08:33:18;18.80;98.50
23329;DHT22;11836;51.050;3.716;2023-04-15T08:35:45;18.90;98.40
23329;DHT22;11836;51.050;3.716;2023-04-15T08:38:10;19.00;98.10
23329;DHT22;11836;51.050;3.716;2023-04-15T08:40:41;19.10;98.00
23329;DHT22;11836;51.050;3.716;2023-04-15T08:43:09;19.10;98.00
23329;DHT22;11836;51.050;3.716;2023-04-15T08:45:37;19.20;97.70
23329;DHT22;11836;51.050;3.716;2023-04-15T08:48:04;19.10;97.60
23329;DHT22;11836;51.050;3.716;2023-04-15T08:50:31;19.10;97.90
23329;DHT22;11836;51.050;3.716;2023-04-15T08:53:01;19.20;97.90
23329;DHT22;11836;51.050;3.716;2023-04-15T08:55:31;19.10;97.90
23329;DHT22;11836;51.050;3.716;2023-04-15T08:58:01;19.10;97.70
23329;DHT22;11836;51.050;3.716;2023-04-15T09:00:28;19.10;97.80
23329;DHT22;11836;51.050;3.716;2023-04-15T09:02:55;19.10;97.90
23329;DHT22;11836;51.050;3.716;2023-04-15T09:05:21;19.10;97.60
23329;DHT22;11836;51.050;3.716;2023-04-15T09:07:50;18.80;97.80
23329;DHT22;11836;51.050;3.716;2023-04-15T09:10:16;19.10;97.70
23329;DHT22;11836;51.050;3.716;2023-04-15T09:12:42;19.10;97.80
23329;DHT22;11836;51.050;3.716;2023-04-15T09:15:10;19.10;98.10
23329;DHT22;11836;51.050;3.716;2023-04-15T09:17:42;19.10;98.20
23329;DHT22;11836;51.050;3.716;2023-04-15T09:20:16;19.10;98.00
23329;DHT22;11836;51.050;3.716;2023-04-15T09:22:46;19.10;97.80
23329;DHT22;11836;51.050;3.716;2023-04-15T09:27:49;19.10;98.10
23329;DHT22;11836;51.050;3.716;2023-04-15T09:30:17;19.10;97.90
23329;DHT22;11836;51.050;3.716;2023-04-15T09:32:50;19.10;98.00
23329;DHT22;11836;51.050;3.716;2023-04-15T09:35:17;19.10;97.80
23329;DHT22;11836;51.050;3.716;2023-04-15T09:37:42;19.10;98.00
23329;DHT22;11836;51.050;3.716;2023-04-15T09:40:08;19.10;98.20
23329;DHT22;11836;51.050;3.716;2023-04-15T09:42:36;19.10;98.20
23329;DHT22;11836;51.050;3.716;2023-04-15T09:45:10;19.20;98.10
23329;DHT22;11836;51.050;3.716;2023-04-15T09:47:36;19.10;98.30
23329;DHT22;11836;51.050;3.716;2023-04-15T09:50:09;19.20;98.30
23329;DHT22;11836;51.050;3.716;2023-04-15T09:52:40;19.20;98.00
23329;DHT22;11836;51.050;3.716;2023-04-15T09:55:07;19.20;97.90
23329;DHT22;11836;51.050;3.716;2023-04-15T09:57:35;19.20;97.70
23329;DHT22;11836;51.050;3.716;2023-04-15T10:00:03;19.20;95.40
23329;DHT22;11836;51.050;3.716;2023-04-15T10:02:29;19.10;97.00
23329;DHT22;11836;51.050;3.716;2023-04-15T10:04:56;19.10;98.00
23329;DHT22;11836;51.050;3.716;2023-04-15T10:07:22;19.10;98.40
23329;DHT22;11836;51.050;3.716;2023-04-15T10:09:48;19.30;98.50
23329;DHT22;11836;51.050;3.716;2023-04-15T10:12:18;19.10;98.60
23329;DHT22;11836;51.050;3.716;2023-04-15T10:14:48;19.10;98.70
23329;DHT22;11836;51.050;3.716;2023-04-15T10:17:17;19.10;98.60
23329;DHT22;11836;51.050;3.716;2023-04-15T10:19:46;19.10;98.80
23329;DHT22;11836;51.050;3.716;2023-04-15T10:22:13;19.10;98.90
23329;DHT22;11836;51.050;3.716;2023-04-15T10:24:39;19.10;98.70
23329;DHT22;11836;51.050;3.716;2023-04-15T10:27:06;19.10;98.90
23329;DHT22;11836;51.050;3.716;2023-04-15T10:29:34;19.10;98.60
23329;DHT22;11836;51.050;3.716;2023-04-15T10:32:03;19.10;98.90
23329;DHT22;11836;51.050;3.716;2023-04-15T10:34:30;19.10;99.20
23329;DHT22;11836;51.050;3.716;2023-04-15T10:37:01;19.00;99.00
23329;DHT22;11836;51.050;3.716;2023-04-15T10:39:39;19.00;98.50
23329;DHT22;11836;51.050;3.716;2023-04-15T10:42:15;19.00;98.40
23329;DHT22;11836;51.050;3.716;2023-04-15T10:44:55;19.00;98.40
23329;DHT22;11836;51.050;3.716;2023-04-15T10:47:21;19.00;98.40
23329;DHT22;11836;51.050;3.716;2023-04-15T10:49:51;18.90;98.00
23329;DHT22;11836;51.050;3.716;2023-04-15T10:52:26;18.90;98.20
23329;DHT22;11836;51.050;3.716;2023-04-15T10:57:38;18.90;98.00
23329;DHT22;11836;51.050;3.716;2023-04-15T11:02:40;18.80;97.70
23329;DHT22;11836;51.050;3.716;2023-04-15T11:05:06;18.80;97.50
23329;DHT22;11836;51.050;3.716;2023-04-15T11:07:33;18.80;97.40
23329;DHT22;11836;51.050;3.716;2023-04-15T11:09:58;18.80;97.30
23329;DHT22;11836;51.050;3.716;2023-04-15T11:12:36;18.70;97.10
23329;DHT22;11836;51.050;3.716;2023-04-15T11:15:26;18.70;97.00
23329;DHT22;11836;51.050;3.716;2023-04-15T11:17:53;18.70;96.50
23329;DHT22;11836;51.050;3.716;2023-04-15T11:20:19;18.60;96.30
23329;DHT22;11836;51.050;3.716;2023-04-15T11:22:52;18.70;96.30
23329;DHT22;11836;51.050;3.716;2023-04-15T11:25:36;18.60;95.90
23329;DHT22;11836;51.050;3.716;2023-04-15T11:28:03;18.60;95.90
23329;DHT22;11836;51.050;3.716;2023-04-15T11:30:34;18.50;95.80
23329;DHT22;11836;51.050;3.716;2023-04-15T11:33:03;18.50;95.90
23329;DHT22;11836;51.050;3.716;2023-04-15T11:35:29;18.50;96.10
23329;DHT22;11836;51.050;3.716;2023-04-15T11:37:55;18.50;95.50
23329;DHT22;11836;51.050;3.716;2023-04-15T11:40:25;18.50;95.70
23329;DHT22;11836;51.050;3.716;2023-04-15T11:43:08;18.40;95.50
23329;DHT22;11836;51.050;3.716;2023-04-15T11:45:34;18.40;95.20
23329;DHT22;11836;51.050;3.716;2023-04-15T11:48:08;18.40;95.20
23329;DHT22;11836;51.050;3.716;2023-04-15T11:50:35;18.40;95.30
23329;DHT22;11836;51.050;3.716;2023-04-15T11:53:03;18.30;94.70
23329;DHT22;11836;51.050;3.716;2023-04-15T11:55:30;18.30;94.60
23329;DHT22;11836;51.050;3.716;2023-04-15T11:58:09;18.30;94.80
23329;DHT22;11836;51.050;3.716;2023-04-15T12:00:36;18.30;95.00
23329;DHT22;11836;51.050;3.716;2023-04-15T12:11:15;18.20;95.20
23329;DHT22;11836;51.050;3.716;2023-04-15T12:13:48;18.20;94.90
23329;DHT22;11836;51.050;3.716;2023-04-15T12:16:18;18.20;95.00
23329;DHT22;11836;51.050;3.716;2023-04-15T12:18:54;18.20;95.00
23329;DHT22;11836;51.050;3.716;2023-04-15T12:21:24;18.10;95.00
23329;DHT22;11836;51.050;3.716;2023-04-15T12:23:52;18.20;95.30
23329;DHT22;11836;51.050;3.716;2023-04-15T12:26:34;18.20;95.20
23329;DHT22;11836;51.050;3.716;2023-04-15T12:29:05;18.20;95.10
23329;DHT22;11836;51.050;3.716;2023-04-15T12:31:31;18.10;94.70
23329;DHT22;11836;51.050;3.716;2023-04-15T12:33:59;18.10;94.90
23329;DHT22;11836;51.050;3.716;2023-04-15T12:36:26;18.10;94.60
23329;DHT22;11836;51.050;3.716;2023-04-15T12:38:52;18.10;94.70
23329;DHT22;11836;51.050;3.716;2023-04-15T12:41:19;18.10;94.80
23329;DHT22;11836;51.050;3.716;2023-04-15T12:43:46;18.10;94.50
23329;DHT22;11836;51.050;3.716;2023-04-15T12:46:12;18.10;94.60
23329;DHT22;11836;51.050;3.716;2023-04-15T12:48:38;18.10;94.30
23329;DHT22;11836;51.050;3.716;2023-04-15T12:51:04;18.10;94.60
23329;DHT22;11836;51.050;3.716;2023-04-15T12:53:30;18.00;94.40
23329;DHT22;11836;51.050;3.716;2023-04-15T12:55:56;18.00;94.60
23329;DHT22;11836;51.050;3.716;2023-04-15T12:58:22;18.00;94.20
23329;DHT22;11836;51.050;3.716;2023-04-15T13:00:47;18.00;94.30
23329;DHT22;11836;51.050;3.716;2023-04-15T13:03:14;18.00;94.60
23329;DHT22;11836;51.050;3.716;2023-04-15T13:05:40;18.00;94.70
23329;DHT22;11836;51.050;3.716;2023-04-15T13:08:09;18.00;94.60
23329;DHT22;11836;51.050;3.716;2023-04-15T13:10:35;18.00;94.30
23329;DHT22;11836;51.050;3.716;2023-04-15T13:13:04;18.00;94.40
23329;DHT22;11836;51.050;3.716;2023-04-15T13:15:30;17.90;94.50
23329;DHT22;11836;51.050;3.716;2023-04-15T13:17:56;17.90;94.40
23329;DHT22;11836;51.050;3.716;2023-04-15T13:20:22;18.00;94.40
23329;DHT22;11836;51.050;3.716;2023-04-15T13:22:47;18.00;94.40
23329;DHT22;11836;51.050;3.716;2023-04-15T13:25:13;18.00;94.20
23329;DHT22;11836;51.050;3.716;2023-04-15T13:27:39;18.00;94.20
23329;DHT22;11836;51.050;3.716;2023-04-15T13:30:05;18.00;94.30
23329;DHT22;11836;51.050;3.716;2023-04-15T13:32:31;18.00;94.00
23329;DHT22;11836;51.050;3.716;2023-04-15T13:34:57;18.00;94.00
23329;DHT22;11836;51.050;3.716;2023-04-15T13:37:27;18.00;94.00
23329;DHT22;11836;51.050;3.716;2023-04-15T13:39:53;17.90;93.90
23329;DHT22;11836;51.050;3.716;2023-04-15T13:42:19;18.00;94.00
23329;DHT22;11836;51.050;3.716;2023-04-15T13:44:45;18.00;94.20
23329;DHT22;11836;51.050;3.716;2023-04-15T13:47:11;18.00;94.30
23329;DHT22;11836;51.050;3.716;2023-04-15T13:49:37;18.00;94.30
23329;DHT22;11836;51.050;3.716;2023-04-15T13:52:03;18.00;94.80
23329;DHT22;11836;51.050;3.716;2023-04-15T13:54:28;18.00;94.70
23329;DHT22;11836;51.050;3.716;2023-04-15T13:56:54;18.00;94.80
23329;DHT22;11836;51.050;3.716;2023-04-15T13:59:21;18.10;95.10
23329;DHT22;11836;51.050;3.716;2023-04-15T14:01:47;18.10;95.00
23329;DHT22;11836;51.050;3.716;2023-04-15T14:04:14;18.10;95.00
23329;DHT22;11836;51.050;3.716;2023-04-15T14:06:39;18.10;95.20
23329;DHT22;11836;51.050;3.716;2023-04-15T14:09:05;18.10;95.20
23329;DHT22;11836;51.050;3.716;2023-04-15T14:11:33;18.10;95.00
23329;DHT22;11836;51.050;3.716;2023-04-15T14:14:01;18.10;94.90
23329;DHT22;11836;51.050;3.716;2023-04-15T14:16:26;18.10;94.90
23329;DHT22;11836;51.050;3.716;2023-04-15T14:18:52;18.10;95.00
23329;DHT22;11836;51.050;3.716;2023-04-15T14:21:18;18.10;95.20
23329;DHT22;11836;51.050;3.716;2023-04-15T14:23:44;18.10;95.30
23329;DHT22;11836;51.050;3.716;2023-04-15T14:26:09;18.10;95.40
23329;DHT22;11836;51.050;3.716;2023-04-15T14:28:35;18.10;96.00
23329;DHT22;11836;51.050;3.716;2023-04-15T14:31:02;18.20;95.60
23329;DHT22;11836;51.050;3.716;2023-04-15T14:33:28;18.10;95.50
23329;DHT22;11836;51.050;3.716;2023-04-15T14:35:53;18.10;95.40
23329;DHT22;11836;51.050;3.716;2023-04-15T14:38:19;18.20;95.50
23329;DHT22;11836;51.050;3.716;2023-04-15T14:40:47;18.10;95.40
23329;DHT22;11836;51.050;3.716;2023-04-15T14:43:12;18.20;95.60
23329;DHT22;11836;51.050;3.716;2023-04-15T14:45:38;18.20;95.60
23329;DHT22;11836;51.050;3.716;2023-04-15T14:48:04;18.10;95.50
23329;DHT22;11836;51.050;3.716;2023-04-15T14:50:31;18.20;95.70
23329;DHT22;11836;51.050;3.716;2023-04-15T14:52:57;18.20;96.00
23329;DHT22;11836;51.050;3.716;2023-04-15T14:55:23;18.20;96.30
23329;DHT22;11836;51.050;3.716;2023-04-15T14:57:48;18.20;96.50
23329;DHT22;11836;51.050;3.716;2023-04-15T15:00:14;18.20;96.60
23329;DHT22;11836;51.050;3.716;2023-04-15T15:02:40;18.20;96.40
23329;DHT22;11836;51.050;3.716;2023-04-15T15:05:08;18.30;96.40
23329;DHT22;11836;51.050;3.716;2023-04-15T15:07:34;18.30;96.40
23329;DHT22;11836;51.050;3.716;2023-04-15T15:10:01;18.30;96.80
23329;DHT22;11836;51.050;3.716;2023-04-15T15:12:27;18.30;96.40
23329;DHT22;11836;51.050;3.716;2023-04-15T15:14:54;18.40;96.40
23329;DHT22;11836;51.050;3.716;2023-04-15T15:17:20;18.30;96.40
23329;DHT22;11836;51.050;3.716;2023-04-15T15:19:46;18.30;96.30
23329;DHT22;11836;51.050;3.716;2023-04-15T15:22:14;18.40;96.10
23329;DHT22;11836;51.050;3.716;2023-04-15T15:24:40;18.40;95.50
23329;DHT22;11836;51.050;3.716;2023-04-15T15:27:06;18.30;95.40
23329;DHT22;11836;51.050;3.716;2023-04-15T15:29:31;18.40;95.20
23329;DHT22;11836;51.050;3.716;2023-04-15T15:31:57;18.30;94.60
23329;DHT22;11836;51.050;3.716;2023-04-15T15:34:23;18.30;94.50
23329;DHT22;11836;51.050;3.716;2023-04-15T15:36:48;18.30;94.50
23329;DHT22;11836;51.050;3.716;2023-04-15T15:39:15;18.30;94.70
23329;DHT22;11836;51.050;3.716;2023-04-15T15:41:41;18.30;95.10
23329;DHT22;11836;51.050;3.716;2023-04-15T15:44:06;18.30;95.30